aviador You're here:

VOHY Decoded Metar

HYDERABAD in INDIA
Report Time2017-07-23 06:30:00
UTC Time2017-07-23 06:52:27
Flight Rules mvfr MVFR
Wind270° at 06 kt
W.Decomp.*RWY 27: 6.0 kt HW 0.1 kt RCW
W.Rank270° ranks 1
Current wind is below 270° avg. (7.1)
Visibility6000 m
Phenomena:N/A
Clouds:Scattered 010 Hf
Scattered 015 Hf
Expected CloudBase > 2,800 ft AGL from Temp-Dew spread
CeilingNone
Temp29°C (ISA +18)
Dew Point22°C (66% RH)
Heat Index32.0°C
QNH1008 hPa
Density Alt4,321 ft
Elevation1,788 ft
Report Wrong Elevation
Raw Report
METAR VOHY 230630Z 27006KT 6000 SCT010 SCT015 29/22 Q1008 NOSIG=

Extra information for VOHY:More info

Metar Taf Metar & Taf Last 4 Metars F.Rules Stats Wind Profile Meteogram Temp Stats Airport Information Weather charts Add Link Nearby VenuesMetar ALERT Operation Metar Decoded Social comments